sensor_id;sensor_type;location;lat;lon;timestamp;pressure;altitude;pressure_sealevel;temperature;humidity
27040;BME280;14589;51.578;7.306;2024-03-06T00:01:21;101221.63;;;6.25;100.00
27040;BME280;14589;51.578;7.306;2024-03-06T00:03:51;101225.94;;;6.28;100.00
27040;BME280;14589;51.578;7.306;2024-03-06T00:06:22;101231.34;;;6.28;100.00
27040;BME280;14589;51.578;7.306;2024-03-06T00:08:52;101240.38;;;6.27;100.00
27040;BME280;14589;51.578;7.306;2024-03-06T00:11:23;101245.88;;;6.25;100.00
27040;BME280;14589;51.578;7.306;2024-03-06T00:13:53;101240.72;;;6.22;100.00
27040;BME280;14589;51.578;7.306;2024-03-06T00:16:23;101240.19;;;6.17;100.00
27040;BME280;14589;51.578;7.306;2024-03-06T00:18:54;101241.25;;;6.15;100.00
27040;BME280;14589;51.578;7.306;2024-03-06T00:21:24;101241.69;;;6.08;100.00
27040;BME280;14589;51.578;7.306;2024-03-06T00:23:55;101254.38;;;6.06;100.00
27040;BME280;14589;51.578;7.306;2024-03-06T00:26:25;101258.03;;;6.05;100.00
27040;BME280;14589;51.578;7.306;2024-03-06T00:28:56;101261.72;;;6.04;100.00
27040;BME280;14589;51.578;7.306;2024-03-06T00:31:26;101264.50;;;6.03;100.00
27040;BME280;14589;51.578;7.306;2024-03-06T00:33:56;101262.16;;;5.98;100.00
27040;BME280;14589;51.578;7.306;2024-03-06T00:36:27;101263.84;;;5.99;100.00
27040;BME280;14589;51.578;7.306;2024-03-06T00:38:57;101265.78;;;5.97;100.00
27040;BME280;14589;51.578;7.306;2024-03-06T00:41:28;101268.34;;;5.99;100.00
27040;BME280;14589;51.578;7.306;2024-03-06T00:43:58;101269.03;;;6.02;100.00
27040;BME280;14589;51.578;7.306;2024-03-06T00:46:28;101269.03;;;6.02;100.00
27040;BME280;14589;51.578;7.306;2024-03-06T00:48:59;101276.34;;;6.00;100.00
27040;BME280;14589;51.578;7.306;2024-03-06T00:51:29;101266.66;;;5.98;100.00
27040;BME280;14589;51.578;7.306;2024-03-06T00:54:00;101266.66;;;5.98;100.00
27040;BME280;14589;51.578;7.306;2024-03-06T00:56:31;101272.91;;;5.98;100.00
27040;BME280;14589;51.578;7.306;2024-03-06T00:59:02;101281.94;;;5.97;100.00
27040;BME280;14589;51.578;7.306;2024-03-06T01:01:32;101275.38;;;6.01;100.00
27040;BME280;14589;51.578;7.306;2024-03-06T01:04:02;101278.28;;;5.98;100.00
27040;BME280;14589;51.578;7.306;2024-03-06T01:06:33;101284.72;;;5.96;100.00
27040;BME280;14589;51.578;7.306;2024-03-06T01:09:03;101277.84;;;5.92;100.00
27040;BME280;14589;51.578;7.306;2024-03-06T01:11:33;101261.31;;;5.84;100.00
27040;BME280;14589;51.578;7.306;2024-03-06T01:14:04;101284.09;;;5.92;100.00
27040;BME280;14589;51.578;7.306;2024-03-06T01:16:34;101282.75;;;5.85;100.00
27040;BME280;14589;51.578;7.306;2024-03-06T01:19:05;101274.97;;;5.81;100.00
27040;BME280;14589;51.578;7.306;2024-03-06T01:21:35;101284.69;;;5.83;100.00
27040;BME280;14589;51.578;7.306;2024-03-06T01:24:05;101278.75;;;5.78;100.00
27040;BME280;14589;51.578;7.306;2024-03-06T01:26:36;101296.63;;;5.79;100.00
27040;BME280;14589;51.578;7.306;2024-03-06T01:29:06;101297.78;;;5.75;100.00
27040;BME280;14589;51.578;7.306;2024-03-06T01:31:37;101289.41;;;5.67;100.00
27040;BME280;14589;51.578;7.306;2024-03-06T01:34:07;101294.66;;;5.68;100.00
27040;BME280;14589;51.578;7.306;2024-03-06T01:36:37;101303.91;;;5.64;100.00
27040;BME280;14589;51.578;7.306;2024-03-06T01:39:08;101297.09;;;5.59;100.00
27040;BME280;14589;51.578;7.306;2024-03-06T01:41:46;101314.03;;;5.61;100.00
27040;BME280;14589;51.578;7.306;2024-03-06T01:44:18;101310.47;;;5.60;100.00
27040;BME280;14589;51.578;7.306;2024-03-06T01:46:48;101310.56;;;5.59;100.00
27040;BME280;14589;51.578;7.306;2024-03-06T01:49:19;101316.91;;;5.58;100.00
27040;BME280;14589;51.578;7.306;2024-03-06T01:51:53;101318.63;;;5.59;100.00
27040;BME280;14589;51.578;7.306;2024-03-06T01:54:24;101312.59;;;5.55;100.00
27040;BME280;14589;51.578;7.306;2024-03-06T01:56:55;101319.22;;;5.50;100.00
27040;BME280;14589;51.578;7.306;2024-03-06T01:59:26;101310.41;;;5.48;100.00
27040;BME280;14589;51.578;7.306;2024-03-06T02:01:56;101317.22;;;5.53;100.00
27040;BME280;14589;51.578;7.306;2024-03-06T02:04:27;101314.72;;;5.50;100.00
27040;BME280;14589;51.578;7.306;2024-03-06T02:06:58;101311.56;;;5.44;100.00
27040;BME280;14589;51.578;7.306;2024-03-06T02:09:28;101315.81;;;5.48;100.00
27040;BME280;14589;51.578;7.306;2024-03-06T02:11:59;101313.38;;;5.43;100.00
27040;BME280;14589;51.578;7.306;2024-03-06T02:14:30;101326.75;;;5.45;100.00
27040;BME280;14589;51.578;7.306;2024-03-06T02:17:01;101328.56;;;5.44;100.00
27040;BME280;14589;51.578;7.306;2024-03-06T02:19:42;101319.00;;;5.40;100.00
27040;BME280;14589;51.578;7.306;2024-03-06T02:22:13;101332.22;;;5.43;100.00
27040;BME280;14589;51.578;7.306;2024-03-06T02:24:45;101327.81;;;5.42;100.00
27040;BME280;14589;51.578;7.306;2024-03-06T02:27:15;101322.72;;;5.38;100.00
27040;BME280;14589;51.578;7.306;2024-03-06T02:29:46;101325.41;;;5.38;100.00
27040;BME280;14589;51.578;7.306;2024-03-06T02:32:17;101328.41;;;5.33;100.00
27040;BME280;14589;51.578;7.306;2024-03-06T02:34:48;101335.63;;;5.33;100.00
27040;BME280;14589;51.578;7.306;2024-03-06T02:37:18;101331.19;;;5.32;100.00
27040;BME280;14589;51.578;7.306;2024-03-06T02:39:49;101334.09;;;5.28;100.00
27040;BME280;14589;51.578;7.306;2024-03-06T02:42:20;101329.91;;;5.24;100.00
27040;BME280;14589;51.578;7.306;2024-03-06T02:44:50;101339.78;;;5.24;100.00
27040;BME280;14589;51.578;7.306;2024-03-06T02:47:20;101329.53;;;5.16;100.00
27040;BME280;14589;51.578;7.306;2024-03-06T02:49:51;101331.53;;;5.13;100.00
27040;BME280;14589;51.578;7.306;2024-03-06T02:52:21;101328.09;;;5.11;100.00
27040;BME280;14589;51.578;7.306;2024-03-06T02:54:52;101337.91;;;5.12;100.00
27040;BME280;14589;51.578;7.306;2024-03-06T02:57:23;101324.16;;;5.02;100.00
27040;BME280;14589;51.578;7.306;2024-03-06T02:59:53;101335.00;;;5.01;100.00
27040;BME280;14589;51.578;7.306;2024-03-06T03:02:23;101324.38;;;4.99;100.00
27040;BME280;14589;51.578;7.306;2024-03-06T03:04:54;101343.19;;;4.99;100.00
27040;BME280;14589;51.578;7.306;2024-03-06T03:07:24;101331.84;;;4.94;100.00
27040;BME280;14589;51.578;7.306;2024-03-06T03:09:54;101330.16;;;4.93;100.00
27040;BME280;14589;51.578;7.306;2024-03-06T03:12:25;101339.16;;;4.92;100.00
27040;BME280;14589;51.578;7.306;2024-03-06T03:14:55;101333.22;;;4.87;100.00
27040;BME280;14589;51.578;7.306;2024-03-06T03:17:25;101342.16;;;4.87;100.00
27040;BME280;14589;51.578;7.306;2024-03-06T03:19:56;101339.00;;;4.81;100.00
27040;BME280;14589;51.578;7.306;2024-03-06T03:22:26;101339.94;;;4.80;100.00
27040;BME280;14589;51.578;7.306;2024-03-06T03:24:57;101334.19;;;4.72;100.00
27040;BME280;14589;51.578;7.306;2024-03-06T03:27:27;101333.31;;;4.71;100.00
27040;BME280;14589;51.578;7.306;2024-03-06T03:29:58;101347.81;;;4.69;100.00
27040;BME280;14589;51.578;7.306;2024-03-06T03:32:28;101339.09;;;4.65;100.00
27040;BME280;14589;51.578;7.306;2024-03-06T03:34:59;101342.25;;;4.58;100.00
27040;BME280;14589;51.578;7.306;2024-03-06T03:37:29;101345.03;;;4.56;100.00
27040;BME280;14589;51.578;7.306;2024-03-06T03:40:00;101347.25;;;4.50;100.00
27040;BME280;14589;51.578;7.306;2024-03-06T03:42:30;101337.84;;;4.42;100.00
27040;BME280;14589;51.578;7.306;2024-03-06T03:45:00;101342.81;;;4.34;100.00
27040;BME280;14589;51.578;7.306;2024-03-06T03:47:33;101355.66;;;4.29;100.00
27040;BME280;14589;51.578;7.306;2024-03-06T03:50:04;101350.66;;;4.23;100.00
27040;BME280;14589;51.578;7.306;2024-03-06T03:52:34;101340.28;;;4.17;100.00
27040;BME280;14589;51.578;7.306;2024-03-06T03:55:05;101349.50;;;4.13;100.00
27040;BME280;14589;51.578;7.306;2024-03-06T03:57:35;101346.41;;;4.05;100.00
27040;BME280;14589;51.578;7.306;2024-03-06T04:00:06;101347.34;;;4.04;100.00
27040;BME280;14589;51.578;7.306;2024-03-06T04:02:42;101362.00;;;3.98;100.00
27040;BME280;14589;51.578;7.306;2024-03-06T04:05:12;101369.38;;;3.95;100.00
27040;BME280;14589;51.578;7.306;2024-03-06T04:07:43;101359.97;;;3.88;100.00
27040;BME280;14589;51.578;7.306;2024-03-06T04:10:13;101374.59;;;3.82;100.00
27040;BME280;14589;51.578;7.306;2024-03-06T04:12:44;101380.81;;;3.83;100.00
27040;BME280;14589;51.578;7.306;2024-03-06T04:15:14;101385.41;;;3.81;100.00
27040;BME280;14589;51.578;7.306;2024-03-06T04:17:44;101382.16;;;3.76;100.00
27040;BME280;14589;51.578;7.306;2024-03-06T04:20:15;101382.38;;;3.71;100.00
27040;BME280;14589;51.578;7.306;2024-03-06T04:22:45;101369.97;;;3.70;100.00
27040;BME280;14589;51.578;7.306;2024-03-06T04:25:18;101378.09;;;3.69;100.00
27040;BME280;14589;51.578;7.306;2024-03-06T04:27:48;101388.72;;;3.70;100.00
27040;BME280;14589;51.578;7.306;2024-03-06T04:30:18;101385.34;;;3.66;100.00
27040;BME280;14589;51.578;7.306;2024-03-06T04:32:49;101382.22;;;3.58;100.00
27040;BME280;14589;51.578;7.306;2024-03-06T04:35:19;101396.78;;;3.54;100.00
27040;BME280;14589;51.578;7.306;2024-03-06T04:37:49;101393.50;;;3.49;100.00
27040;BME280;14589;51.578;7.306;2024-03-06T04:40:20;101405.25;;;3.47;100.00
27040;BME280;14589;51.578;7.306;2024-03-06T04:42:52;101402.16;;;3.39;100.00
27040;BME280;14589;51.578;7.306;2024-03-06T04:45:22;101408.19;;;3.42;100.00
27040;BME280;14589;51.578;7.306;2024-03-06T04:47:53;101423.69;;;3.37;100.00
27040;BME280;14589;51.578;7.306;2024-03-06T04:50:23;101416.13;;;3.28;100.00
27040;BME280;14589;51.578;7.306;2024-03-06T04:52:53;101421.59;;;3.27;100.00
27040;BME280;14589;51.578;7.306;2024-03-06T04:55:24;101433.28;;;3.25;100.00
27040;BME280;14589;51.578;7.306;2024-03-06T04:57:55;101428.06;;;3.22;100.00
27040;BME280;14589;51.578;7.306;2024-03-06T05:00:25;101417.94;;;3.12;100.00
27040;BME280;14589;51.578;7.306;2024-03-06T05:02:56;101439.38;;;3.12;100.00
27040;BME280;14589;51.578;7.306;2024-03-06T05:05:26;101437.03;;;3.06;100.00
27040;BME280;14589;51.578;7.306;2024-03-06T05:07:57;101440.75;;;3.03;100.00
27040;BME280;14589;51.578;7.306;2024-03-06T05:10:27;101443.53;;;3.02;100.00
27040;BME280;14589;51.578;7.306;2024-03-06T05:12:57;101444.72;;;2.96;100.00
27040;BME280;14589;51.578;7.306;2024-03-06T05:15:28;101443.84;;;2.96;100.00
27040;BME280;14589;51.578;7.306;2024-03-06T05:17:58;101444.09;;;2.91;100.00
27040;BME280;14589;51.578;7.306;2024-03-06T05:20:30;101443.00;;;2.78;100.00
27040;BME280;14589;51.578;7.306;2024-03-06T05:23:01;101459.72;;;2.83;100.00
27040;BME280;14589;51.578;7.306;2024-03-06T05:25:32;101462.53;;;2.80;100.00
27040;BME280;14589;51.578;7.306;2024-03-06T05:28:03;101446.88;;;2.72;100.00
27040;BME280;14589;51.578;7.306;2024-03-06T05:30:34;101468.16;;;2.75;100.00
27040;BME280;14589;51.578;7.306;2024-03-06T05:33:04;101469.09;;;2.74;100.00
27040;BME280;14589;51.578;7.306;2024-03-06T05:35:35;101463.25;;;2.66;100.00
27040;BME280;14589;51.578;7.306;2024-03-06T05:38:06;101473.81;;;2.69;100.00
27040;BME280;14589;51.578;7.306;2024-03-06T05:40:37;101468.63;;;2.66;100.00
27040;BME280;14589;51.578;7.306;2024-03-06T05:43:10;101467.06;;;2.62;100.00
27040;BME280;14589;51.578;7.306;2024-03-06T05:45:40;101483.31;;;2.59;100.00
27040;BME280;14589;51.578;7.306;2024-03-06T05:48:11;101490.47;;;2.59;100.00
27040;BME280;14589;51.578;7.306;2024-03-06T05:50:41;101492.34;;;2.57;100.00
27040;BME280;14589;51.578;7.306;2024-03-06T05:53:12;101477.53;;;2.50;100.00
27040;BME280;14589;51.578;7.306;2024-03-06T05:55:42;101458.31;;;2.41;100.00
27040;BME280;14589;51.578;7.306;2024-03-06T05:58:12;101482.19;;;2.46;100.00
27040;BME280;14589;51.578;7.306;2024-03-06T06:00:43;101473.06;;;2.33;100.00
27040;BME280;14589;51.578;7.306;2024-03-06T06:03:13;101487.94;;;2.38;100.00
27040;BME280;14589;51.578;7.306;2024-03-06T06:05:44;101491.47;;;2.39;100.00
27040;BME280;14589;51.578;7.306;2024-03-06T06:08:14;101502.19;;;2.39;100.00
27040;BME280;14589;51.578;7.306;2024-03-06T06:10:44;101503.19;;;2.36;100.00
27040;BME280;14589;51.578;7.306;2024-03-06T06:13:15;101497.22;;;2.31;100.00
27040;BME280;14589;51.578;7.306;2024-03-06T06:15:45;101516.88;;;2.30;100.00
27040;BME280;14589;51.578;7.306;2024-03-06T06:18:16;101518.69;;;2.30;100.00
27040;BME280;14589;51.578;7.306;2024-03-06T06:20:46;101516.31;;;2.24;100.00
27040;BME280;14589;51.578;7.306;2024-03-06T06:23:16;101525.53;;;2.18;100.00
27040;BME280;14589;51.578;7.306;2024-03-06T06:25:47;101520.41;;;2.14;100.00
27040;BME280;14589;51.578;7.306;2024-03-06T06:28:17;101527.31;;;2.18;100.00
27040;BME280;14589;51.578;7.306;2024-03-06T06:30:48;101512.50;;;2.11;100.00
27040;BME280;14589;51.578;7.306;2024-03-06T06:33:19;101523.31;;;2.09;100.00
27040;BME280;14589;51.578;7.306;2024-03-06T06:35:49;101535.34;;;2.18;100.00
27040;BME280;14589;51.578;7.306;2024-03-06T06:38:19;101530.06;;;2.16;100.00
27040;BME280;14589;51.578;7.306;2024-03-06T06:40:50;101533.84;;;2.12;100.00
27040;BME280;14589;51.578;7.306;2024-03-06T06:43:20;101540.69;;;2.18;100.00
27040;BME280;14589;51.578;7.306;2024-03-06T06:45:51;101534.34;;;2.20;100.00
27040;BME280;14589;51.578;7.306;2024-03-06T06:48:21;101547.19;;;2.31;100.00
27040;BME280;14589;51.578;7.306;2024-03-06T06:50:52;101542.00;;;2.28;100.00
27040;BME280;14589;51.578;7.306;2024-03-06T06:53:23;101548.91;;;2.32;100.00
27040;BME280;14589;51.578;7.306;2024-03-06T06:55:53;101564.66;;;2.38;100.00
27040;BME280;14589;51.578;7.306;2024-03-06T06:58:24;101568.22;;;2.38;100.00
27040;BME280;14589;51.578;7.306;2024-03-06T07:00:54;101572.22;;;2.47;100.00
27040;BME280;14589;51.578;7.306;2024-03-06T07:03:25;101576.50;;;2.51;100.00
27040;BME280;14589;51.578;7.306;2024-03-06T07:05:59;101575.88;;;2.63;100.00
27040;BME280;14589;51.578;7.306;2024-03-06T07:08:30;101576.81;;;2.79;100.00
27040;BME280;14589;51.578;7.306;2024-03-06T07:11:00;101577.69;;;2.97;100.00
27040;BME280;14589;51.578;7.306;2024-03-06T07:13:30;101572.56;;;3.10;100.00
27040;BME280;14589;51.578;7.306;2024-03-06T07:16:02;101585.84;;;3.29;100.00
27040;BME280;14589;51.578;7.306;2024-03-06T07:18:33;101590.47;;;3.42;100.00
27040;BME280;14589;51.578;7.306;2024-03-06T07:21:03;101585.41;;;3.53;100.00
27040;BME280;14589;51.578;7.306;2024-03-06T07:23:34;101580.16;;;3.67;100.00
27040;BME280;14589;51.578;7.306;2024-03-06T07:26:04;101586.25;;;3.87;100.00
27040;BME280;14589;51.578;7.306;2024-03-06T07:28:35;101580.00;;;4.02;100.00
27040;BME280;14589;51.578;7.306;2024-03-06T07:31:05;101586.94;;;4.22;100.00
27040;BME280;14589;51.578;7.306;2024-03-06T07:33:36;101580.72;;;4.37;100.00
27040;BME280;14589;51.578;7.306;2024-03-06T07:36:08;101596.28;;;4.62;100.00
27040;BME280;14589;51.578;7.306;2024-03-06T07:38:39;101589.03;;;4.78;100.00
27040;BME280;14589;51.578;7.306;2024-03-06T07:41:09;101601.09;;;5.01;100.00
27040;BME280;14589;51.578;7.306;2024-03-06T07:43:40;101588.56;;;5.15;100.00
27040;BME280;14589;51.578;7.306;2024-03-06T07:46:11;101589.94;;;5.37;100.00
27040;BME280;14589;51.578;7.306;2024-03-06T07:48:42;101591.69;;;5.52;100.00
27040;BME280;14589;51.578;7.306;2024-03-06T07:51:16;101604.53;;;5.75;100.00
27040;BME280;14589;51.578;7.306;2024-03-06T07:53:46;101596.50;;;5.89;100.00
27040;BME280;14589;51.578;7.306;2024-03-06T07:56:17;101615.69;;;6.12;100.00
27040;BME280;14589;51.578;7.306;2024-03-06T07:58:47;101621.75;;;6.29;100.00
27040;BME280;14589;51.578;7.306;2024-03-06T08:01:18;101622.16;;;6.50;100.00
27040;BME280;14589;51.578;7.306;2024-03-06T08:03:48;101637.00;;;6.70;100.00
27040;BME280;14589;51.578;7.306;2024-03-06T08:06:19;101629.75;;;6.84;100.00
27040;BME280;14589;51.578;7.306;2024-03-06T08:08:49;101618.00;;;6.98;100.00
27040;BME280;14589;51.578;7.306;2024-03-06T08:11:20;101621.59;;;7.11;100.00
27040;BME280;14589;51.578;7.306;2024-03-06T08:13:57;101629.81;;;7.22;100.00
27040;BME280;14589;51.578;7.306;2024-03-06T08:16:28;101633.84;;;7.42;100.00
27040;BME280;14589;51.578;7.306;2024-03-06T08:19:00;101639.59;;;7.50;100.00
27040;BME280;14589;51.578;7.306;2024-03-06T08:21:30;101632.69;;;7.59;100.00
27040;BME280;14589;51.578;7.306;2024-03-06T08:24:01;101648.47;;;7.78;100.00
27040;BME280;14589;51.578;7.306;2024-03-06T08:26:31;101645.00;;;7.88;100.00
27040;BME280;14589;51.578;7.306;2024-03-06T08:29:02;101643.00;;;8.03;100.00
27040;BME280;14589;51.578;7.306;2024-03-06T08:31:32;101654.03;;;8.12;100.00
27040;BME280;14589;51.578;7.306;2024-03-06T08:34:02;101648.38;;;8.28;100.00
27040;BME280;14589;51.578;7.306;2024-03-06T08:36:33;101640.59;;;8.49;100.00
27040;BME280;14589;51.578;7.306;2024-03-06T08:39:04;101651.09;;;8.65;100.00
27040;BME280;14589;51.578;7.306;2024-03-06T08:41:35;101656.72;;;8.74;100.00
27040;BME280;14589;51.578;7.306;2024-03-06T08:44:05;101654.41;;;8.81;100.00
27040;BME280;14589;51.578;7.306;2024-03-06T08:46:36;101662.75;;;9.02;100.00
27040;BME280;14589;51.578;7.306;2024-03-06T08:49:06;101657.63;;;9.10;100.00
27040;BME280;14589;51.578;7.306;2024-03-06T08:51:37;101667.41;;;9.23;100.00
27040;BME280;14589;51.578;7.306;2024-03-06T08:54:07;101661.78;;;9.38;100.00
27040;BME280;14589;51.578;7.306;2024-03-06T08:56:37;101665.69;;;9.68;100.00
27040;BME280;14589;51.578;7.306;2024-03-06T08:59:08;101669.63;;;9.75;100.00
27040;BME280;14589;51.578;7.306;2024-03-06T09:01:38;101670.28;;;9.90;100.00
27040;BME280;14589;51.578;7.306;2024-03-06T09:04:08;101675.81;;;9.89;100.00
27040;BME280;14589;51.578;7.306;2024-03-06T09:06:38;101672.88;;;9.92;100.00
27040;BME280;14589;51.578;7.306;2024-03-06T09:09:09;101667.94;;;9.97;100.00
27040;BME280;14589;51.578;7.306;2024-03-06T09:11:39;101672.59;;;9.84;100.00
27040;BME280;14589;51.578;7.306;2024-03-06T09:14:10;101677.59;;;10.23;100.00
27040;BME280;14589;51.578;7.306;2024-03-06T09:16:40;101682.53;;;10.18;100.00
27040;BME280;14589;51.578;7.306;2024-03-06T09:19:10;101680.66;;;10.19;100.00
27040;BME280;14589;51.578;7.306;2024-03-06T09:21:41;101688.03;;;10.05;100.00
27040;BME280;14589;51.578;7.306;2024-03-06T09:24:11;101681.66;;;10.18;100.00
27040;BME280;14589;51.578;7.306;2024-03-06T09:26:43;101694.91;;;9.98;99.74
27040;BME280;14589;51.578;7.306;2024-03-06T09:29:13;101684.94;;;9.99;100.00
27040;BME280;14589;51.578;7.306;2024-03-06T09:31:44;101689.81;;;10.18;100.00
27040;BME280;14589;51.578;7.306;2024-03-06T09:34:15;101689.53;;;10.21;100.00
27040;BME280;14589;51.578;7.306;2024-03-06T09:36:47;101691.72;;;10.15;100.00
27040;BME280;14589;51.578;7.306;2024-03-06T09:39:19;101700.47;;;10.08;100.00
27040;BME280;14589;51.578;7.306;2024-03-06T09:41:55;101694.44;;;10.04;100.00
27040;BME280;14589;51.578;7.306;2024-03-06T09:44:27;101693.31;;;10.07;100.00
27040;BME280;14589;51.578;7.306;2024-03-06T09:46:59;101704.13;;;9.96;98.89
27040;BME280;14589;51.578;7.306;2024-03-06T09:49:33;101706.47;;;9.89;100.00
27040;BME280;14589;51.578;7.306;2024-03-06T09:52:04;101705.50;;;10.12;100.00
27040;BME280;14589;51.578;7.306;2024-03-06T09:54:35;101707.66;;;10.20;99.84
27040;BME280;14589;51.578;7.306;2024-03-06T09:57:05;101702.09;;;10.44;98.44
27040;BME280;14589;51.578;7.306;2024-03-06T09:59:36;101706.41;;;10.46;95.61
27040;BME280;14589;51.578;7.306;2024-03-06T10:02:32;101707.28;;;10.58;95.05
27040;BME280;14589;51.578;7.306;2024-03-06T10:05:05;101712.84;;;10.34;90.17
27040;BME280;14589;51.578;7.306;2024-03-06T10:07:36;101708.63;;;10.19;91.65
27040;BME280;14589;51.578;7.306;2024-03-06T10:10:06;101699.72;;;10.62;94.93
27040;BME280;14589;51.578;7.306;2024-03-06T10:12:37;101718.69;;;10.95;95.01
27040;BME280;14589;51.578;7.306;2024-03-06T10:15:07;101728.19;;;11.32;89.46
27040;BME280;14589;51.578;7.306;2024-03-06T10:17:42;101721.19;;;11.51;85.34
27040;BME280;14589;51.578;7.306;2024-03-06T10:20:20;101725.69;;;11.93;81.10
27040;BME280;14589;51.578;7.306;2024-03-06T10:22:52;101723.22;;;12.11;77.87
27040;BME280;14589;51.578;7.306;2024-03-06T10:25:23;101718.72;;;12.21;76.52
27040;BME280;14589;51.578;7.306;2024-03-06T10:30:36;101721.19;;;12.64;72.60
27040;BME280;14589;51.578;7.306;2024-03-06T10:33:06;101717.22;;;12.78;69.42
27040;BME280;14589;51.578;7.306;2024-03-06T10:35:40;101723.81;;;13.25;73.38
27040;BME280;14589;51.578;7.306;2024-03-06T10:38:12;101730.41;;;13.61;69.72
27040;BME280;14589;51.578;7.306;2024-03-06T10:40:43;101726.06;;;14.06;66.14
27040;BME280;14589;51.578;7.306;2024-03-06T10:43:14;101737.56;;;13.91;73.31
27040;BME280;14589;51.578;7.306;2024-03-06T10:45:49;101726.97;;;14.34;68.12
27040;BME280;14589;51.578;7.306;2024-03-06T10:48:19;101734.59;;;14.40;71.75
27040;BME280;14589;51.578;7.306;2024-03-06T10:50:50;101743.38;;;14.25;71.35
27040;BME280;14589;51.578;7.306;2024-03-06T10:53:22;101736.00;;;14.44;66.56
27040;BME280;14589;51.578;7.306;2024-03-06T10:55:53;101741.19;;;14.47;65.57
27040;BME280;14589;51.578;7.306;2024-03-06T10:58:25;101725.84;;;14.27;69.94
27040;BME280;14589;51.578;7.306;2024-03-06T11:00:56;101741.00;;;13.93;74.19
27040;BME280;14589;51.578;7.306;2024-03-06T11:03:28;101735.28;;;14.52;66.73
27040;BME280;14589;51.578;7.306;2024-03-06T11:06:01;101740.44;;;14.55;63.25
27040;BME280;14589;51.578;7.306;2024-03-06T11:08:32;101737.38;;;14.68;64.24
27040;BME280;14589;51.578;7.306;2024-03-06T11:11:20;101739.94;;;14.23;59.80
27040;BME280;14589;51.578;7.306;2024-03-06T11:13:55;101743.44;;;14.05;62.03
27040;BME280;14589;51.578;7.306;2024-03-06T11:16:29;101749.75;;;13.96;62.81
27040;BME280;14589;51.578;7.306;2024-03-06T11:19:07;101739.56;;;13.98;64.32
27040;BME280;14589;51.578;7.306;2024-03-06T11:21:47;101742.41;;;14.16;62.17
27040;BME280;14589;51.578;7.306;2024-03-06T11:24:24;101741.47;;;14.35;60.63
27040;BME280;14589;51.578;7.306;2024-03-06T11:27:03;101741.41;;;14.64;60.77
27040;BME280;14589;51.578;7.306;2024-03-06T11:30:03;101745.06;;;14.82;61.79
27040;BME280;14589;51.578;7.306;2024-03-06T11:33:00;101741.19;;;15.29;57.32
27040;BME280;14589;51.578;7.306;2024-03-06T11:35:33;101753.84;;;15.48;56.37
27040;BME280;14589;51.578;7.306;2024-03-06T11:38:05;101741.47;;;15.26;60.23
27040;BME280;14589;51.578;7.306;2024-03-06T11:40:43;101748.94;;;15.69;55.12
27040;BME280;14589;51.578;7.306;2024-03-06T11:43:27;101753.72;;;15.85;54.56
27040;BME280;14589;51.578;7.306;2024-03-06T11:46:08;101759.31;;;16.01;52.17
27040;BME280;14589;51.578;7.306;2024-03-06T11:48:39;101752.72;;;16.12;52.28
27040;BME280;14589;51.578;7.306;2024-03-06T11:51:10;101743.44;;;16.05;54.70
27040;BME280;14589;51.578;7.306;2024-03-06T11:53:40;101748.25;;;16.29;51.20
27040;BME280;14589;51.578;7.306;2024-03-06T11:56:14;101747.97;;;16.40;50.08
27040;BME280;14589;51.578;7.306;2024-03-06T11:58:45;101745.22;;;16.40;50.06
27040;BME280;14589;51.578;7.306;2024-03-06T12:01:16;101749.94;;;16.30;51.52
27040;BME280;14589;51.578;7.306;2024-03-06T12:03:48;101745.28;;;16.22;49.85
27040;BME280;14589;51.578;7.306;2024-03-06T12:06:19;101747.91;;;15.88;52.49
27040;BME280;14589;51.578;7.306;2024-03-06T12:08:50;101755.44;;;15.68;51.24
27040;BME280;14589;51.578;7.306;2024-03-06T12:11:20;101746.06;;;15.53;50.63
27040;BME280;14589;51.578;7.306;2024-03-06T12:13:51;101753.50;;;15.16;53.36
27040;BME280;14589;51.578;7.306;2024-03-06T12:16:22;101748.38;;;14.76;55.72
27040;BME280;14589;51.578;7.306;2024-03-06T12:18:57;101745.63;;;14.85;56.33
27040;BME280;14589;51.578;7.306;2024-03-06T12:21:28;101744.50;;;14.78;55.95
27040;BME280;14589;51.578;7.306;2024-03-06T12:24:08;101757.13;;;14.52;56.38
27040;BME280;14589;51.578;7.306;2024-03-06T12:26:39;101742.66;;;14.42;57.64
27040;BME280;14589;51.578;7.306;2024-03-06T12:29:16;101748.13;;;14.23;58.26
27040;BME280;14589;51.578;7.306;2024-03-06T12:31:47;101750.88;;;14.03;59.50
27040;BME280;14589;51.578;7.306;2024-03-06T12:34:18;101747.66;;;14.37;57.14
27040;BME280;14589;51.578;7.306;2024-03-06T12:36:48;101760.78;;;14.70;55.63
27040;BME280;14589;51.578;7.306;2024-03-06T12:39:19;101761.69;;;14.88;55.61
27040;BME280;14589;51.578;7.306;2024-03-06T12:41:53;101759.06;;;15.24;55.78
27040;BME280;14589;51.578;7.306;2024-03-06T12:44:23;101763.00;;;15.57;53.37
27040;BME280;14589;51.578;7.306;2024-03-06T12:46:53;101767.47;;;15.75;52.16
27040;BME280;14589;51.578;7.306;2024-03-06T12:49:24;101754.00;;;16.00;51.02
27040;BME280;14589;51.578;7.306;2024-03-06T12:51:54;101760.44;;;16.42;50.06
27040;BME280;14589;51.578;7.306;2024-03-06T12:54:25;101757.22;;;16.73;49.33
27040;BME280;14589;51.578;7.306;2024-03-06T12:56:55;101749.47;;;16.94;47.13
27040;BME280;14589;51.578;7.306;2024-03-06T12:59:27;101744.28;;;17.41;46.50
27040;BME280;14589;51.578;7.306;2024-03-06T13:01:57;101751.38;;;17.02;48.15
27040;BME280;14589;51.578;7.306;2024-03-06T13:04:27;101741.97;;;17.70;45.29
27040;BME280;14589;51.578;7.306;2024-03-06T13:06:58;101731.00;;;17.70;42.69
27040;BME280;14589;51.578;7.306;2024-03-06T13:09:28;101751.72;;;18.22;43.40
27040;BME280;14589;51.578;7.306;2024-03-06T13:11:58;101744.72;;;18.19;42.46
27040;BME280;14589;51.578;7.306;2024-03-06T13:14:29;101733.91;;;17.93;42.51